< < Back
Terminal Aerodrome Forecast


Current Version              Previous Versions:   1  2  3  4  5  6  7  8  9  

Terminal Aerodrome Forecast

878
FTUS42 KMLB 181100
TAFDAB
TAF
KDAB 181135Z 1812/1912 09010KT P6SM VCSH SCT015 BKN020
     FM181900 14011KT P6SM SHRA VCTS SCT020 BKN040CB OVC060
      TEMPO 1821/1823 4SM TSRA SCT020 BKN030CB
     FM190300 16008KT P6SM VCSH BKN030 OVC050=



Latest METAR

692
SAUS80 KWBC 181500 CCA
MTRDAB
METAR KDAB 181453Z 10010G17KT 4SM -TSRA BR BKN011 BKN021CB OVC035 22/21
A3007 RMK AO2 RAB39 TSB37 SLP181 OCNL LGTCG N TS N MOV N
P0000 60000 T02220211 58010


USA.gov is the U.S. government's official web portal to all federal, state and local government web resources and services.